首页
METAR-TAF:

METAR-TAF

机场 :

空军基地 Cameri

諾瓦拉, 意大利

纬度: 45-31N, 经度: 008-40E, 海拔: 178米

当前天气观测

该预报发布于37分钟前的16:55 UTC
风速9节,风向
温度 7°C
湿度 100%
气压 1015 hPa
能見度: 1600
阴天层高于1700英尺
毛毛雨, 轻雾

METAR: LIMN 191655Z 35009KT 1600 DZ BR OVC017 07/07 Q1015 REDZ RMK OVC VIS MIN 1600 YLO

时间: 18:32 (17:32 UTC)

预报

该预报发布于32分钟前的17:00 UTC
预报有效从19日的 18点(UTC)到 20日的 03点(UTC)
风速10节,风向
能見度: 3000
阴天层高于2000英尺
雨, 轻雾
短暂存在
从 19日的 18点(UTC)到 20日的 03点(UTC)
能見度: 1500
雨, 轻雾

TAF: LIMN 191700Z 1918/2003 35010KT 3000 RA BR OVC020 TEMPO 1918/2003 1500 RA BR

超过4000个机场的气象观测和天气预报(METAR&TAF报告)。

可查询的气象台以黄色和红色小点在地图上表示。

将鼠标移到小点上方,可查看气象台名称。

然后点击查看天气观测和预报。

如需切换地图:点击带黑十字的绿色按钮放大地图;点击带横线的绿色按钮缩小地图;或者点击绿色箭头查看邻近地区的地图。


METAR-TAF: